Blenheim, South Carolina
Current Conditions -  °F | °C
As of 11:55 AM on Wednesday 22 Oct 2014 (Local Time) from KBBP Reporting Station
Clear Clear  
Wind Chill: 64°   Ceiling: Unl
Heat Index: 64°   Visibility: 10mi
Dew Point: 28°   Wind: 13mph
Humidity: 26%   Direction: 330°NNW
Pressure: 30.04"   Gusts: 17mph
Location:  34.51°N, 79.65°W
Report Text: KBBP 221555Z AUTO 33011G15KT 10SM CLR 18/M02 A3004 RMK AO2
Loading
Personal Weather Stations






























Interactive Weather Map
Tropical Storm Tracking
New forecast layout! Learn more

10-Day Weather Forecast

Advertisements
Track Severe Weather on mobile